Terminal Aerodrome Forecast
Issued by NWS

Current Version | Previous Version | Text Only | Print | Product List | Glossary On
Versions: 1 2 3 4 5 6 7 8 9 10 11 12 13 14 15 16 17 18 19 20 21 22 23
000
FTUS44 KHGX 280520
TAFLBX
TAF
KLBX 280520Z 2806/2906 17007KT P6SM FEW007 SCT100 BKN250
      TEMPO 2808/2812 5SM BR BKN007
     FM281500 16009KT P6SM BKN015
     FM281800 15011KT P6SM VCTS SCT030CB
     FM290100 14007KT P6SM SCT015=

USA.gov is the U.S. government's official web portal to all federal, state and local government web resources and services.